createdAt,value
2017-08-21T00:00:14.315Z,11.60
2017-08-21T00:01:09.327Z,11.58
2017-08-21T00:02:10.391Z,11.58
2017-08-21T00:03:10.466Z,11.58
2017-08-21T00:04:10.616Z,11.54
2017-08-21T00:05:10.457Z,11.57
2017-08-21T00:06:11.600Z,11.53
2017-08-21T00:07:12.574Z,11.50
2017-08-21T00:08:06.605Z,11.47
2017-08-21T00:09:06.870Z,11.38
2017-08-21T00:10:01.633Z,11.42
2017-08-21T00:10:56.668Z,11.37
2017-08-21T00:11:56.960Z,11.36
2017-08-21T00:12:51.720Z,11.34
2017-08-21T00:13:46.931Z,11.28
2017-08-21T00:14:46.822Z,11.26
2017-08-21T00:15:41.806Z,11.25
2017-08-21T00:16:36.918Z,11.20
2017-08-21T00:17:42.953Z,11.16
2017-08-21T00:18:37.055Z,11.11
2017-08-21T00:19:37.936Z,11.14
2017-08-21T00:20:38.010Z,11.17
2017-08-21T00:21:38.024Z,11.16
2017-08-21T00:22:33.069Z,11.17
2017-08-21T00:23:27.081Z,11.19
2017-08-21T00:24:27.119Z,11.18
2017-08-21T00:25:22.178Z,11.20
2017-08-21T00:26:28.175Z,11.19
2017-08-21T00:27:23.297Z,11.17
2017-08-21T00:28:17.292Z,11.17
2017-08-21T00:29:17.429Z,11.14
2017-08-21T00:30:17.341Z,11.15
2017-08-21T00:31:12.367Z,11.16
2017-08-21T00:32:06.367Z,11.16
2017-08-21T00:33:06.770Z,11.18
2017-08-21T00:34:01.498Z,11.14
2017-08-21T00:34:56.626Z,11.13
2017-08-21T00:35:57.529Z,11.11
2017-08-21T00:36:57.571Z,11.10
2017-08-21T00:37:57.506Z,11.12
2017-08-21T00:38:52.636Z,11.13
2017-08-21T00:39:46.598Z,11.12
2017-08-21T00:40:46.646Z,11.06
2017-08-21T00:41:41.717Z,11.08
2017-08-21T00:42:41.721Z,11.08
2017-08-21T00:43:35.923Z,11.04
2017-08-21T00:44:35.831Z,11.03
2017-08-21T00:45:30.826Z,11.01
2017-08-21T00:46:30.960Z,11.02
2017-08-21T00:47:30.975Z,11.02
2017-08-21T00:48:30.863Z,11.00
2017-08-21T00:49:24.993Z,10.99
2017-08-21T00:50:25.039Z,11.01
2017-08-21T00:51:20.214Z,10.96
2017-08-21T00:52:15.163Z,10.94
2017-08-21T00:53:15.102Z,10.95
2017-08-21T00:54:10.322Z,10.91
2017-08-21T00:55:05.192Z,10.93
2017-08-21T00:56:06.096Z,10.91
2017-08-21T00:57:06.339Z,10.90
2017-08-21T00:58:06.303Z,10.86
2017-08-21T00:59:01.492Z,10.84
2017-08-21T00:59:55.312Z,10.81
2017-08-21T01:00:55.432Z,10.81
2017-08-21T01:01:50.439Z,10.81
2017-08-21T01:02:50.422Z,10.76
2017-08-21T01:03:44.875Z,10.71
2017-08-21T01:04:44.436Z,10.78
2017-08-21T01:05:39.544Z,10.82
2017-08-21T01:06:34.551Z,10.79
2017-08-21T01:07:34.547Z,10.79
2017-08-21T01:08:29.601Z,10.79
2017-08-21T01:09:29.841Z,10.78
2017-08-21T01:10:29.652Z,10.78
2017-08-21T01:11:29.659Z,10.76
2017-08-21T01:12:23.705Z,10.76
2017-08-21T01:13:23.687Z,10.75
2017-08-21T01:14:18.717Z,10.72
2017-08-21T01:15:13.868Z,10.75
2017-08-21T01:16:14.836Z,10.78
2017-08-21T01:17:14.821Z,10.78
2017-08-21T01:18:14.922Z,10.73
2017-08-21T01:19:10.158Z,10.75
2017-08-21T01:20:04.085Z,10.80
2017-08-21T01:21:03.998Z,10.73
2017-08-21T01:21:59.286Z,10.72
2017-08-21T01:22:59.120Z,10.68
2017-08-21T01:23:53.323Z,10.64
2017-08-21T01:24:53.124Z,10.65
2017-08-21T01:25:48.324Z,10.62
2017-08-21T01:26:43.329Z,10.61
2017-08-21T01:27:43.466Z,10.60
2017-08-21T01:28:38.484Z,10.58
2017-08-21T01:29:33.516Z,10.60
2017-08-21T01:30:34.353Z,10.58
2017-08-21T01:31:34.359Z,10.58
2017-08-21T01:32:34.444Z,10.58
2017-08-21T01:33:34.690Z,10.59
2017-08-21T01:34:35.402Z,10.62
2017-08-21T01:35:36.472Z,10.62
2017-08-21T01:36:30.496Z,10.63
2017-08-21T01:37:30.557Z,10.64
2017-08-21T01:38:25.824Z,10.61
2017-08-21T01:39:20.851Z,10.60
2017-08-21T01:40:20.676Z,10.58
2017-08-21T01:41:15.635Z,10.54
2017-08-21T01:42:10.703Z,10.55
2017-08-21T01:43:10.696Z,10.52
2017-08-21T01:44:06.012Z,10.50
2017-08-21T01:45:00.793Z,10.54
2017-08-21T01:46:01.850Z,10.54
2017-08-21T01:47:01.828Z,10.58
2017-08-21T01:48:01.875Z,10.56
2017-08-21T01:48:56.891Z,10.50
2017-08-21T01:49:50.947Z,10.49
2017-08-21T01:50:50.917Z,10.48
2017-08-21T01:51:46.093Z,10.48
2017-08-21T01:52:46.001Z,10.46
2017-08-21T01:53:40.222Z,10.43
2017-08-21T01:54:40.126Z,10.47
2017-08-21T01:55:35.055Z,10.51
2017-08-21T01:56:30.173Z,10.56
2017-08-21T01:57:30.185Z,10.55
2017-08-21T01:58:25.227Z,10.56
2017-08-21T01:59:20.608Z,10.56
2017-08-21T02:00:21.275Z,10.52
2017-08-21T02:01:21.353Z,10.52
2017-08-21T02:02:21.298Z,10.48
2017-08-21T02:03:16.477Z,10.52
2017-08-21T02:04:10.410Z,10.50
2017-08-21T02:05:10.431Z,10.54
2017-08-21T02:06:05.496Z,10.54
2017-08-21T02:07:05.552Z,10.51
2017-08-21T02:07:59.509Z,10.48
2017-08-21T02:08:59.611Z,10.45
2017-08-21T02:09:54.683Z,10.45
2017-08-21T02:10:49.662Z,10.48
2017-08-21T02:11:49.688Z,10.44
2017-08-21T02:12:44.695Z,10.42
2017-08-21T02:13:39.850Z,10.38
2017-08-21T02:14:45.699Z,10.41
2017-08-21T02:15:39.741Z,10.40
2017-08-21T02:16:39.838Z,10.38
2017-08-21T02:17:34.818Z,10.37
2017-08-21T02:18:34.914Z,10.33
2017-08-21T02:19:34.942Z,10.35
2017-08-21T02:20:41.135Z,10.36
2017-08-21T02:21:40.929Z,10.35
2017-08-21T02:22:40.986Z,10.37
2017-08-21T02:23:41.144Z,10.31
2017-08-21T02:24:35.094Z,10.33
2017-08-21T02:25:35.080Z,10.32
2017-08-21T02:26:30.106Z,10.30
2017-08-21T02:27:25.213Z,10.30
2017-08-21T02:28:25.147Z,10.32
2017-08-21T02:29:20.625Z,10.28
2017-08-21T02:30:15.253Z,10.36
2017-08-21T02:31:21.208Z,10.33
2017-08-21T02:32:15.342Z,10.36
2017-08-21T02:33:16.361Z,10.35
2017-08-21T02:34:16.354Z,10.34
2017-08-21T02:35:16.488Z,10.40
2017-08-21T02:36:11.568Z,10.44
2017-08-21T02:37:05.489Z,10.46
2017-08-21T02:38:05.478Z,10.46
2017-08-21T02:39:00.581Z,10.42
2017-08-21T02:40:00.593Z,10.42
2017-08-21T02:40:54.647Z,10.42
2017-08-21T02:41:54.641Z,10.42
2017-08-21T02:42:49.653Z,10.45
2017-08-21T02:43:44.643Z,10.44
2017-08-21T02:44:44.654Z,10.41
2017-08-21T02:45:39.743Z,10.42
2017-08-21T02:46:39.810Z,10.42
2017-08-21T02:47:39.826Z,10.43
2017-08-21T02:48:39.811Z,10.42
2017-08-21T02:49:33.832Z,10.40
2017-08-21T02:50:34.923Z,10.41
2017-08-21T02:51:34.901Z,10.42
2017-08-21T02:52:29.985Z,10.40
2017-08-21T02:53:30.304Z,10.38
2017-08-21T02:54:24.208Z,10.36
2017-08-21T02:55:24.092Z,10.33
2017-08-21T02:56:19.093Z,10.36
2017-08-21T02:57:14.104Z,10.32
2017-08-21T02:58:14.202Z,10.29
2017-08-21T02:59:09.384Z,10.28
2017-08-21T03:00:04.228Z,10.32
2017-08-21T03:01:04.179Z,10.32
2017-08-21T03:02:04.226Z,10.30
2017-08-21T03:03:04.275Z,10.30
2017-08-21T03:03:59.309Z,10.28
2017-08-21T03:04:54.324Z,10.29
2017-08-21T03:06:00.329Z,10.28
2017-08-21T03:06:54.428Z,10.30
2017-08-21T03:07:54.460Z,10.31
2017-08-21T03:08:49.643Z,10.28
2017-08-21T03:09:49.593Z,10.32
2017-08-21T03:10:49.479Z,10.30
2017-08-21T03:11:55.602Z,10.28
2017-08-21T03:12:50.580Z,10.31
2017-08-21T03:13:51.664Z,10.30
2017-08-21T03:14:52.741Z,10.32
2017-08-21T03:15:52.709Z,10.32
2017-08-21T03:16:52.694Z,10.34
2017-08-21T03:17:47.760Z,10.32
2017-08-21T03:18:41.803Z,10.28
2017-08-21T03:19:41.840Z,10.29
2017-08-21T03:20:36.852Z,10.26
2017-08-21T03:21:36.903Z,10.25
2017-08-21T03:22:30.973Z,10.20
2017-08-21T03:23:31.969Z,10.18
2017-08-21T03:24:32.913Z,10.21
2017-08-21T03:25:27.992Z,10.22
2017-08-21T03:26:22.142Z,10.20
2017-08-21T03:27:22.082Z,10.22
2017-08-21T03:28:17.039Z,10.25
2017-08-21T03:29:17.113Z,10.20
2017-08-21T03:30:11.130Z,10.22
2017-08-21T03:31:11.176Z,10.20
2017-08-21T03:32:06.261Z,10.24
2017-08-21T03:33:01.245Z,10.22
2017-08-21T03:34:01.517Z,10.20
2017-08-21T03:34:56.327Z,10.25
2017-08-21T03:35:51.360Z,10.21
2017-08-21T03:36:51.311Z,10.22
2017-08-21T03:37:46.406Z,10.23
2017-08-21T03:38:46.437Z,10.24
2017-08-21T03:39:46.468Z,10.25
2017-08-21T03:40:46.470Z,10.22
2017-08-21T03:41:40.519Z,10.21
2017-08-21T03:42:40.537Z,10.20
2017-08-21T03:43:36.017Z,10.22
2017-08-21T03:44:30.612Z,10.21
2017-08-21T03:45:31.675Z,10.20
2017-08-21T03:46:31.705Z,10.20
2017-08-21T03:47:31.668Z,10.20
2017-08-21T03:48:26.704Z,10.22
2017-08-21T03:49:20.933Z,10.22
2017-08-21T03:50:20.923Z,10.24
2017-08-21T03:51:15.814Z,10.22
2017-08-21T03:52:15.934Z,10.19
2017-08-21T03:53:09.879Z,10.20
2017-08-21T03:54:09.934Z,10.16
2017-08-21T03:55:05.024Z,10.20
2017-08-21T03:55:59.993Z,10.22
2017-08-21T03:57:00.024Z,10.20
2017-08-21T03:57:55.060Z,10.23
2017-08-21T03:58:50.026Z,10.21
2017-08-21T03:59:51.099Z,10.24
2017-08-21T04:00:51.124Z,10.24
2017-08-21T04:01:51.141Z,10.24
2017-08-21T04:02:46.215Z,10.22
2017-08-21T04:03:40.560Z,10.19
2017-08-21T04:04:41.250Z,10.20
2017-08-21T04:05:41.228Z,10.19
2017-08-21T04:06:41.305Z,10.27
2017-08-21T04:07:36.352Z,10.28
2017-08-21T04:08:30.328Z,10.28
2017-08-21T04:09:30.679Z,10.32
2017-08-21T04:10:25.450Z,10.28
2017-08-21T04:11:20.494Z,10.31
2017-08-21T04:12:20.570Z,10.30
2017-08-21T04:13:15.545Z,10.30
2017-08-21T04:14:10.585Z,10.29
2017-08-21T04:15:04.629Z,10.25
2017-08-21T04:16:04.605Z,10.26
2017-08-21T04:16:59.650Z,10.30
2017-08-21T04:17:54.825Z,10.30
2017-08-21T04:18:54.730Z,10.34
2017-08-21T04:19:49.732Z,10.30
2017-08-21T04:20:44.789Z,10.28
2017-08-21T04:21:38.815Z,10.28
2017-08-21T04:22:38.866Z,10.30
2017-08-21T04:23:33.971Z,10.28
2017-08-21T04:24:39.977Z,10.20
2017-08-21T04:25:34.972Z,10.26
2017-08-21T04:26:29.025Z,10.27
2017-08-21T04:27:28.991Z,10.32
2017-08-21T04:28:24.081Z,10.34
2017-08-21T04:29:24.106Z,10.30
2017-08-21T04:30:25.079Z,10.23
2017-08-21T04:31:25.187Z,10.28
2017-08-21T04:32:25.114Z,10.28
2017-08-21T04:33:25.114Z,10.30
2017-08-21T04:34:25.381Z,10.30
2017-08-21T04:35:26.281Z,10.36
2017-08-21T04:36:20.250Z,10.32
2017-08-21T04:37:20.319Z,10.39
2017-08-21T04:38:15.392Z,10.46
2017-08-21T04:39:10.432Z,10.44
2017-08-21T04:40:10.487Z,10.50
2017-08-21T04:41:05.505Z,10.44
2017-08-21T04:42:00.554Z,10.50
2017-08-21T04:42:54.512Z,10.48
2017-08-21T04:43:55.569Z,10.50
2017-08-21T04:44:50.646Z,10.54
2017-08-21T04:45:50.622Z,10.50
2017-08-21T04:46:50.666Z,10.56
2017-08-21T04:47:50.705Z,10.50
2017-08-21T04:48:50.769Z,10.56
2017-08-21T04:49:50.745Z,10.62
2017-08-21T04:50:56.720Z,10.60
2017-08-21T04:51:51.880Z,10.70
2017-08-21T04:52:45.782Z,10.72
2017-08-21T04:53:45.866Z,10.66
2017-08-21T04:54:40.904Z,10.72
2017-08-21T04:55:36.074Z,10.78
2017-08-21T04:56:35.922Z,10.76
2017-08-21T04:57:31.052Z,10.78
2017-08-21T04:58:26.036Z,10.76
2017-08-21T04:59:20.060Z,10.80
2017-08-21T05:00:21.038Z,10.78
2017-08-21T05:01:16.151Z,10.84
2017-08-21T05:02:16.194Z,10.87
2017-08-21T05:03:16.235Z,10.82
2017-08-21T05:04:16.440Z,10.86
2017-08-21T05:05:16.181Z,10.87
2017-08-21T05:06:16.279Z,10.86
2017-08-21T05:07:16.394Z,10.90
2017-08-21T05:08:16.360Z,10.94
2017-08-21T05:09:16.359Z,10.94
2017-08-21T05:10:16.454Z,10.90
2017-08-21T05:11:22.454Z,10.95
2017-08-21T05:12:17.482Z,10.98
2017-08-21T05:13:11.518Z,10.98
2017-08-21T05:14:12.586Z,11.02
2017-08-21T05:15:13.505Z,11.16
2017-08-21T05:16:08.606Z,11.25
2017-08-21T05:17:08.636Z,11.35
2017-08-21T05:18:08.648Z,11.44
2017-08-21T05:19:08.716Z,11.50
2017-08-21T05:20:08.753Z,11.66
2017-08-21T05:21:08.872Z,11.78
2017-08-21T05:22:08.841Z,11.82
2017-08-21T05:23:08.867Z,11.94
2017-08-21T05:24:08.849Z,11.92
2017-08-21T05:25:08.903Z,12.02
2017-08-21T05:26:08.948Z,12.07
2017-08-21T05:27:08.918Z,12.11
2017-08-21T05:28:14.917Z,12.15
2017-08-21T05:29:15.022Z,12.27
2017-08-21T05:30:16.101Z,12.28
2017-08-21T05:31:17.146Z,12.25
2017-08-21T05:32:18.149Z,12.33
2017-08-21T05:33:12.241Z,12.49
2017-08-21T05:34:12.197Z,12.46
2017-08-21T05:35:07.285Z,12.56
2017-08-21T05:36:02.206Z,12.70
2017-08-21T05:36:56.453Z,12.63
2017-08-21T05:37:57.333Z,12.73
2017-08-21T05:38:58.566Z,12.82
2017-08-21T05:39:53.446Z,12.88
2017-08-21T05:40:53.436Z,13.06
2017-08-21T05:41:59.530Z,13.21
2017-08-21T05:42:54.487Z,13.13
2017-08-21T05:43:48.500Z,13.19
2017-08-21T05:44:48.590Z,13.30
2017-08-21T05:45:43.586Z,13.28
2017-08-21T05:46:38.697Z,13.42
2017-08-21T05:47:38.775Z,13.52
2017-08-21T05:48:33.694Z,13.60
2017-08-21T05:49:28.970Z,13.73
2017-08-21T05:50:29.023Z,13.78
2017-08-21T05:51:29.049Z,13.94
2017-08-21T05:52:29.052Z,14.01
2017-08-21T05:53:29.121Z,14.10
2017-08-21T05:54:23.167Z,14.29
2017-08-21T05:55:24.156Z,14.41
2017-08-21T05:56:19.299Z,14.51
2017-08-21T05:57:19.253Z,14.65
2017-08-21T05:58:19.268Z,14.86
2017-08-21T05:59:19.436Z,14.96
2017-08-21T06:00:19.160Z,15.03
2017-08-21T06:01:19.421Z,15.19
2017-08-21T06:02:19.589Z,15.38
2017-08-21T06:03:19.512Z,15.66
2017-08-21T06:04:19.441Z,15.89
2017-08-21T06:05:19.485Z,15.96
2017-08-21T06:06:19.558Z,15.97
2017-08-21T06:07:19.419Z,16.02
2017-08-21T06:08:25.711Z,15.90
2017-08-21T06:09:20.456Z,15.75
2017-08-21T06:10:14.525Z,15.62
2017-08-21T06:11:08.586Z,15.55
2017-08-21T06:11:57.649Z,15.50
2017-08-21T06:12:51.925Z,15.54
2017-08-21T06:13:52.892Z,15.45
2017-08-21T06:14:52.900Z,15.48
2017-08-21T06:15:47.742Z,15.38
2017-08-21T06:16:48.915Z,15.49
2017-08-21T06:17:48.876Z,15.08
2017-08-21T06:18:44.357Z,15.06
2017-08-21T06:19:39.181Z,15.11
2017-08-21T06:20:28.204Z,14.92
2017-08-21T06:21:22.297Z,15.16
2017-08-21T06:22:11.274Z,15.12
2017-08-21T06:23:05.322Z,14.82
2017-08-21T06:24:05.140Z,14.42
2017-08-21T06:25:00.417Z,14.08
2017-08-21T06:25:55.527Z,14.10
2017-08-21T06:26:55.580Z,13.84
2017-08-21T06:27:55.583Z,13.54
2017-08-21T06:28:49.623Z,13.27
2017-08-21T06:29:49.634Z,13.29
2017-08-21T06:30:44.631Z,13.30
2017-08-21T06:31:39.740Z,13.30
2017-08-21T06:32:33.738Z,13.23
2017-08-21T06:33:33.879Z,13.16
2017-08-21T06:34:28.859Z,13.12
2017-08-21T06:35:28.929Z,13.27
2017-08-21T06:36:28.951Z,13.44
2017-08-21T06:37:28.965Z,13.61
2017-08-21T06:38:23.063Z,13.70
2017-08-21T06:39:17.147Z,13.88
2017-08-21T06:40:12.126Z,13.90
2017-08-21T06:41:12.179Z,13.98
2017-08-21T06:42:01.279Z,14.29
2017-08-21T06:42:50.313Z,14.38
2017-08-21T06:43:38.320Z,14.61
2017-08-21T06:44:32.438Z,14.62
2017-08-21T06:45:32.433Z,14.76
2017-08-21T06:46:27.556Z,14.92
2017-08-21T06:47:22.455Z,15.71
2017-08-21T06:48:22.535Z,16.13
2017-08-21T06:49:28.495Z,16.28
2017-08-21T06:50:23.933Z,16.41
2017-08-21T06:51:17.729Z,16.89
2017-08-21T06:52:23.718Z,17.39
2017-08-21T06:53:17.747Z,17.13
2017-08-21T06:54:18.920Z,17.51
2017-08-21T06:55:13.809Z,17.71
2017-08-21T06:56:13.879Z,17.96
2017-08-21T06:57:20.015Z,17.81
2017-08-21T06:58:14.941Z,18.19
2017-08-21T06:59:09.191Z,17.94
2017-08-21T07:00:09.071Z,18.89
2017-08-21T07:01:04.183Z,19.08
2017-08-21T07:01:59.243Z,19.17
2017-08-21T07:02:59.223Z,19.10
2017-08-21T07:03:54.211Z,19.22
2017-08-21T07:04:49.306Z,18.98
2017-08-21T07:05:43.344Z,19.24
2017-08-21T07:06:44.371Z,19.55
2017-08-21T07:07:39.465Z,19.90
2017-08-21T07:08:39.543Z,20.08
2017-08-21T07:09:27.491Z,20.13
2017-08-21T07:10:21.607Z,20.14
2017-08-21T07:11:15.641Z,20.28
2017-08-21T07:12:03.632Z,20.33
2017-08-21T07:12:51.722Z,20.43
2017-08-21T07:13:39.795Z,20.38
2017-08-21T07:14:39.838Z,20.08
2017-08-21T07:15:34.887Z,20.23
2017-08-21T07:16:28.913Z,20.23
2017-08-21T07:17:16.961Z,20.20
2017-08-21T07:18:05.033Z,20.31
2017-08-21T07:18:59.145Z,20.56
2017-08-21T07:19:48.213Z,20.52
2017-08-21T07:20:37.240Z,20.05
2017-08-21T07:21:25.239Z,19.93
2017-08-21T07:22:20.341Z,19.55
2017-08-21T07:23:20.335Z,19.53
2017-08-21T07:24:14.517Z,19.63
2017-08-21T07:25:03.449Z,19.84
2017-08-21T07:25:57.479Z,20.18
2017-08-21T07:26:52.580Z,20.22
2017-08-21T07:27:46.624Z,20.26
2017-08-21T07:28:41.734Z,20.35
2017-08-21T07:29:35.716Z,20.38
2017-08-21T07:30:29.730Z,20.18
2017-08-21T07:31:29.816Z,20.06
2017-08-21T07:32:29.857Z,20.27
2017-08-21T07:33:24.911Z,20.34
2017-08-21T07:34:24.946Z,20.32
2017-08-21T07:35:13.950Z,20.22
2017-08-21T07:36:03.141Z,20.14
2017-08-21T07:36:57.064Z,20.08
2017-08-21T07:37:51.246Z,20.01
2017-08-21T07:38:46.222Z,19.97
2017-08-21T07:39:41.310Z,19.92
2017-08-21T07:40:30.351Z,19.90
2017-08-21T07:41:25.362Z,20.07
2017-08-21T07:42:25.481Z,20.32
2017-08-21T07:43:20.482Z,20.66
2017-08-21T07:44:09.580Z,20.89
2017-08-21T07:45:04.616Z,21.10
2017-08-21T07:45:53.636Z,21.22
2017-08-21T07:46:42.669Z,21.32
2017-08-21T07:47:36.720Z,21.10
2017-08-21T07:48:25.788Z,21.05
2017-08-21T07:49:19.936Z,20.96
2017-08-21T07:50:13.965Z,20.97
2017-08-21T07:51:02.981Z,21.14
2017-08-21T07:52:03.027Z,21.18
2017-08-21T07:52:57.062Z,21.02
2017-08-21T07:53:57.159Z,20.89
2017-08-21T07:54:45.234Z,20.92
2017-08-21T07:55:45.320Z,20.91
2017-08-21T07:56:40.241Z,20.82
2017-08-21T07:57:34.394Z,20.64
2017-08-21T07:58:34.446Z,20.91
2017-08-21T07:59:28.455Z,20.79
2017-08-21T08:00:17.540Z,20.74
2017-08-21T08:01:11.595Z,20.72
2017-08-21T08:02:06.617Z,20.92
2017-08-21T08:03:00.820Z,21.26
2017-08-21T08:03:54.660Z,21.51
2017-08-21T08:04:43.793Z,21.61
2017-08-21T08:05:32.816Z,21.74
2017-08-21T08:06:20.924Z,21.88
2017-08-21T08:07:21.980Z,22.04
2017-08-21T08:08:09.972Z,22.37
2017-08-21T08:08:59.040Z,22.66
2017-08-21T08:09:53.044Z,22.46
2017-08-21T08:10:48.126Z,22.15
2017-08-21T08:11:43.238Z,21.58
2017-08-21T08:12:32.280Z,21.40
2017-08-21T08:13:21.298Z,21.48
2017-08-21T08:14:16.398Z,21.59
2017-08-21T08:15:10.430Z,21.88
2017-08-21T08:16:05.476Z,22.17
2017-08-21T08:17:00.640Z,22.02
2017-08-21T08:17:49.681Z,22.17
2017-08-21T08:18:43.683Z,21.91
2017-08-21T08:19:43.687Z,21.55
2017-08-21T08:20:37.783Z,21.58
2017-08-21T08:21:37.808Z,21.76
2017-08-21T08:22:32.925Z,21.92
2017-08-21T08:23:27.931Z,22.27
2017-08-21T08:24:22.010Z,22.74
2017-08-21T08:25:22.083Z,22.90
2017-08-21T08:26:17.144Z,22.88
2017-08-21T08:27:11.347Z,22.93
2017-08-21T08:28:05.311Z,22.32
2017-08-21T08:28:54.355Z,22.36
2017-08-21T08:29:42.387Z,22.37
2017-08-21T08:30:42.457Z,22.40
2017-08-21T08:31:30.412Z,22.24
2017-08-21T08:32:30.521Z,21.89
2017-08-21T08:33:24.585Z,21.63
2017-08-21T08:34:18.634Z,21.92
2017-08-21T08:35:12.719Z,21.58
2017-08-21T08:36:07.743Z,21.14
2017-08-21T08:37:01.794Z,20.94
2017-08-21T08:37:49.873Z,20.83
2017-08-21T08:38:50.911Z,20.91
2017-08-21T08:39:45.984Z,20.98
2017-08-21T08:40:40.033Z,21.24
2017-08-21T08:41:29.017Z,21.18
2017-08-21T08:42:23.196Z,21.00
2017-08-21T08:43:11.244Z,21.05
2017-08-21T08:44:00.315Z,21.32
2017-08-21T08:44:55.334Z,21.57
2017-08-21T08:45:49.402Z,21.83
2017-08-21T08:46:49.391Z,22.01
2017-08-21T08:47:43.557Z,22.28
2017-08-21T08:48:43.658Z,22.22
2017-08-21T08:49:32.612Z,22.20
2017-08-21T08:50:27.670Z,22.11
2017-08-21T08:51:16.668Z,21.71
2017-08-21T08:52:16.765Z,21.40
2017-08-21T08:53:10.848Z,21.08
2017-08-21T08:54:10.787Z,20.46
2017-08-21T08:54:59.888Z,20.06
2017-08-21T08:55:55.105Z,19.68
2017-08-21T08:56:43.004Z,19.55
2017-08-21T08:57:44.114Z,19.92
2017-08-21T08:58:38.095Z,20.32
2017-08-21T08:59:33.147Z,20.37
2017-08-21T09:00:27.510Z,20.73
2017-08-21T09:01:21.314Z,21.16
2017-08-21T09:02:15.344Z,21.64
2017-08-21T09:03:10.386Z,22.02
2017-08-21T09:03:58.423Z,22.50
2017-08-21T09:04:53.503Z,22.84
2017-08-21T09:05:54.819Z,22.68
2017-08-21T09:06:49.641Z,22.45
2017-08-21T09:07:43.687Z,22.53
2017-08-21T09:08:44.744Z,22.67
2017-08-21T09:09:39.750Z,22.07
2017-08-21T09:10:34.938Z,21.57
2017-08-21T09:11:23.970Z,21.24
2017-08-21T09:12:17.936Z,20.72
2017-08-21T09:13:12.037Z,20.98
2017-08-21T09:14:00.131Z,21.47
2017-08-21T09:14:49.190Z,21.79
2017-08-21T09:15:43.265Z,22.06
2017-08-21T09:16:37.303Z,22.16
2017-08-21T09:17:26.294Z,22.25
2017-08-21T09:18:20.398Z,21.96
2017-08-21T09:19:15.443Z,21.52
2017-08-21T09:20:09.537Z,21.03
2017-08-21T09:21:03.586Z,20.81
2017-08-21T09:21:58.658Z,21.02
2017-08-21T09:22:52.710Z,20.89
2017-08-21T09:23:46.806Z,20.58
2017-08-21T09:24:41.793Z,20.25
2017-08-21T09:25:29.812Z,20.02
2017-08-21T09:26:17.870Z,19.98
2017-08-21T09:27:12.026Z,19.84
2017-08-21T09:28:06.025Z,20.10
2017-08-21T09:29:06.152Z,20.44
2017-08-21T09:29:55.174Z,20.60
2017-08-21T09:30:44.176Z,20.40
2017-08-21T09:31:39.288Z,20.35
2017-08-21T09:32:34.305Z,20.28
2017-08-21T09:33:34.365Z,20.31
2017-08-21T09:34:29.342Z,20.17
2017-08-21T09:35:23.554Z,20.06
2017-08-21T09:36:18.544Z,19.98
2017-08-21T09:37:12.570Z,20.24
2017-08-21T09:38:01.538Z,20.79
2017-08-21T09:38:56.631Z,21.29
2017-08-21T09:39:45.690Z,21.71
2017-08-21T09:40:39.746Z,21.61
2017-08-21T09:41:33.805Z,21.67
2017-08-21T09:42:33.890Z,21.50
2017-08-21T09:43:28.017Z,21.29
2017-08-21T09:44:28.011Z,20.80
2017-08-21T09:45:17.025Z,20.31
2017-08-21T09:46:12.130Z,20.25
2017-08-21T09:47:00.148Z,20.48
2017-08-21T09:48:00.161Z,21.18
2017-08-21T09:48:54.245Z,21.60
2017-08-21T09:49:48.248Z,22.32
2017-08-21T09:50:37.322Z,22.55
2017-08-21T09:51:26.474Z,22.68
2017-08-21T09:52:21.454Z,22.75
2017-08-21T09:53:15.614Z,22.93
2017-08-21T09:54:09.633Z,22.93
2017-08-21T09:55:03.658Z,22.26
2017-08-21T09:55:57.765Z,21.64
2017-08-21T09:56:57.802Z,21.30
2017-08-21T09:57:57.789Z,21.62
2017-08-21T09:58:57.958Z,21.76
2017-08-21T09:59:52.939Z,21.46
2017-08-21T10:00:46.964Z,21.58
2017-08-21T10:01:35.049Z,21.82
2017-08-21T10:02:29.066Z,21.98
2017-08-21T10:03:23.094Z,22.30
2017-08-21T10:04:24.184Z,22.60
2017-08-21T10:05:19.293Z,22.82
2017-08-21T10:06:14.383Z,22.91
2017-08-21T10:07:03.350Z,22.57
2017-08-21T10:07:57.473Z,22.25
2017-08-21T10:08:52.590Z,21.55
2017-08-21T10:09:53.602Z,21.14
2017-08-21T10:10:47.584Z,20.88
2017-08-21T10:11:41.649Z,20.64
2017-08-21T10:12:35.716Z,20.37
2017-08-21T10:13:29.768Z,20.16
2017-08-21T10:14:23.876Z,19.92
2017-08-21T10:15:17.885Z,19.86
2017-08-21T10:16:19.060Z,19.78
2017-08-21T10:17:13.043Z,19.80
2017-08-21T10:18:07.109Z,19.77
2017-08-21T10:19:07.189Z,19.88
2017-08-21T10:19:56.220Z,20.27
2017-08-21T10:20:56.556Z,20.86
2017-08-21T10:21:45.273Z,21.30
2017-08-21T10:22:39.340Z,21.67
2017-08-21T10:23:39.387Z,22.11
2017-08-21T10:24:34.395Z,21.96
2017-08-21T10:25:28.558Z,21.60
2017-08-21T10:26:23.621Z,21.25
2017-08-21T10:27:17.619Z,20.67
2017-08-21T10:28:05.690Z,20.57
2017-08-21T10:28:59.753Z,20.38
2017-08-21T10:29:53.866Z,20.40
2017-08-21T10:30:53.806Z,20.80
2017-08-21T10:31:42.851Z,21.06
2017-08-21T10:32:37.927Z,21.08
2017-08-21T10:33:32.056Z,21.24
2017-08-21T10:34:27.118Z,21.44
2017-08-21T10:35:22.128Z,22.00
2017-08-21T10:36:10.113Z,22.65
2017-08-21T10:37:05.386Z,23.23
2017-08-21T10:37:59.403Z,23.69
2017-08-21T10:38:54.361Z,23.96
2017-08-21T10:39:43.457Z,23.96
2017-08-21T10:40:37.439Z,24.40
2017-08-21T10:41:31.520Z,24.16
2017-08-21T10:42:20.550Z,23.68
2017-08-21T10:43:14.647Z,23.34
2017-08-21T10:44:03.712Z,23.19
2017-08-21T10:44:57.675Z,23.35
2017-08-21T10:45:51.822Z,23.54
2017-08-21T10:46:51.853Z,23.69
2017-08-21T10:47:40.951Z,23.94
2017-08-21T10:48:34.973Z,23.77
2017-08-21T10:49:28.984Z,23.57
2017-08-21T10:50:23.072Z,23.07
2017-08-21T10:51:12.147Z,22.54
2017-08-21T10:52:00.273Z,22.09
2017-08-21T10:52:48.324Z,21.72
2017-08-21T10:53:42.348Z,21.29
2017-08-21T10:54:42.309Z,21.04
2017-08-21T10:55:36.420Z,21.19
2017-08-21T10:56:30.512Z,21.23
2017-08-21T10:57:36.519Z,21.26
2017-08-21T10:58:30.642Z,21.28
2017-08-21T10:59:24.643Z,21.47
2017-08-21T11:00:18.749Z,22.09
2017-08-21T11:01:12.860Z,22.49
2017-08-21T11:02:06.778Z,22.86
2017-08-21T11:02:55.959Z,22.55
2017-08-21T11:03:45.018Z,22.82
2017-08-21T11:04:44.987Z,23.10
2017-08-21T11:05:39.118Z,23.46
2017-08-21T11:06:28.088Z,23.80
2017-08-21T11:07:16.155Z,23.80
2017-08-21T11:08:10.203Z,23.53
2017-08-21T11:08:58.264Z,23.12
2017-08-21T11:09:46.331Z,22.55
2017-08-21T11:10:35.325Z,22.35
2017-08-21T11:11:30.429Z,22.55
2017-08-21T11:12:24.474Z,22.98
2017-08-21T11:13:18.590Z,23.50
2017-08-21T11:14:07.776Z,24.18
2017-08-21T11:15:02.736Z,24.36
2017-08-21T11:15:50.739Z,24.47
2017-08-21T11:16:45.803Z,24.28
2017-08-21T11:17:34.877Z,24.35
2017-08-21T11:18:23.940Z,24.43
2017-08-21T11:19:18.019Z,24.27
2017-08-21T11:20:07.008Z,24.08
2017-08-21T11:20:56.160Z,23.85
2017-08-21T11:21:50.197Z,24.02
2017-08-21T11:22:39.288Z,24.20
2017-08-21T11:23:33.291Z,24.55
2017-08-21T11:24:33.363Z,24.37
2017-08-21T11:25:21.454Z,24.22
2017-08-21T11:26:15.531Z,23.20
2017-08-21T11:27:04.583Z,22.64
2017-08-21T11:28:04.543Z,22.19
2017-08-21T11:29:04.617Z,21.74
2017-08-21T11:29:53.782Z,21.82
2017-08-21T11:30:53.747Z,22.40
2017-08-21T11:31:47.851Z,22.99
2017-08-21T11:32:48.878Z,23.55
2017-08-21T11:33:42.901Z,24.15
2017-08-21T11:34:30.979Z,24.34
2017-08-21T11:35:25.343Z,24.60
2017-08-21T11:36:19.067Z,24.61
2017-08-21T11:37:13.168Z,24.32
2017-08-21T11:38:13.299Z,24.47
2017-08-21T11:39:02.385Z,24.66
2017-08-21T11:39:57.421Z,25.23
2017-08-21T11:40:52.748Z,25.64
2017-08-21T11:41:47.562Z,25.53
2017-08-21T11:42:41.625Z,24.78
2017-08-21T11:43:29.646Z,24.47
2017-08-21T11:44:24.709Z,24.51
2017-08-21T11:45:13.769Z,24.66
2017-08-21T11:46:07.853Z,24.73
2017-08-21T11:46:55.896Z,24.34
2017-08-21T11:47:49.963Z,23.67
2017-08-21T11:48:38.978Z,23.28
2017-08-21T11:49:34.094Z,23.02
2017-08-21T11:50:23.105Z,23.24
2017-08-21T11:51:17.183Z,23.72
2017-08-21T11:52:06.162Z,24.03
2017-08-21T11:52:55.284Z,24.36
2017-08-21T11:53:44.301Z,24.62
2017-08-21T11:54:33.368Z,25.02
2017-08-21T11:55:27.401Z,25.40
2017-08-21T11:56:15.466Z,25.20
2017-08-21T11:57:09.587Z,25.34
2017-08-21T11:58:15.630Z,25.30
2017-08-21T11:59:03.743Z,25.37
2017-08-21T11:59:57.691Z,25.64
2017-08-21T12:00:51.850Z,26.17